createdAt,value
2019-01-30T00:00:44.459Z,990.31
2019-01-30T00:01:44.431Z,990.30
2019-01-30T00:02:44.405Z,990.27
2019-01-30T00:03:44.372Z,990.27
2019-01-30T00:04:44.344Z,990.27
2019-01-30T00:05:44.324Z,990.26
2019-01-30T00:06:44.286Z,990.25
2019-01-30T00:07:44.274Z,990.22
2019-01-30T00:08:44.230Z,990.22
2019-01-30T00:09:44.199Z,990.20
2019-01-30T00:10:44.171Z,990.19
2019-01-30T00:11:44.143Z,990.16
2019-01-30T00:12:44.113Z,990.17
2019-01-30T00:13:44.089Z,990.13
2019-01-30T00:14:44.055Z,990.10
2019-01-30T00:15:44.028Z,990.06
2019-01-30T00:16:44.000Z,990.10
2019-01-30T00:17:43.972Z,990.03
2019-01-30T00:18:43.942Z,990.01
2019-01-30T00:19:43.914Z,990.03
2019-01-30T00:20:43.886Z,990.03
2019-01-30T00:21:43.861Z,990.01
2019-01-30T00:22:43.828Z,990.00
2019-01-30T00:23:43.799Z,990.02
2019-01-30T00:24:43.771Z,990.00
2019-01-30T00:25:43.755Z,989.96
2019-01-30T00:26:43.717Z,989.94
2019-01-30T00:27:43.684Z,989.93
2019-01-30T00:28:43.656Z,989.87
2019-01-30T00:29:43.629Z,989.86
2019-01-30T00:30:43.598Z,989.85
2019-01-30T00:31:43.569Z,989.82
2019-01-30T00:32:43.541Z,989.81
2019-01-30T00:33:43.512Z,989.78
2019-01-30T00:34:43.482Z,989.79
2019-01-30T00:35:43.455Z,989.75
2019-01-30T00:36:43.426Z,989.73
2019-01-30T00:37:43.402Z,989.73
2019-01-30T00:38:43.368Z,989.75
2019-01-30T00:39:43.342Z,989.72
2019-01-30T00:40:43.312Z,989.70
2019-01-30T00:41:43.283Z,989.67
2019-01-30T00:42:43.263Z,989.68
2019-01-30T00:43:43.225Z,989.68
2019-01-30T00:44:43.201Z,989.65
2019-01-30T00:45:43.170Z,989.65
2019-01-30T00:46:43.140Z,989.65
2019-01-30T00:47:43.110Z,989.65
2019-01-30T00:48:43.084Z,989.65
2019-01-30T00:49:43.056Z,989.66
2019-01-30T00:50:43.021Z,989.59
2019-01-30T00:51:42.995Z,989.56
2019-01-30T00:52:42.966Z,989.56
2019-01-30T00:53:42.939Z,989.54
2019-01-30T00:54:42.910Z,989.53
2019-01-30T00:55:42.879Z,989.54
2019-01-30T00:56:42.850Z,989.51
2019-01-30T00:57:42.824Z,989.52
2019-01-30T00:58:42.795Z,989.49
2019-01-30T00:59:42.764Z,989.49
2019-01-30T01:00:42.742Z,989.47
2019-01-30T01:01:42.707Z,989.44
2019-01-30T01:02:42.681Z,989.46
2019-01-30T01:03:42.649Z,989.42
2019-01-30T01:04:42.621Z,989.45
2019-01-30T01:05:42.598Z,989.43
2019-01-30T01:06:42.565Z,989.38
2019-01-30T01:07:42.535Z,989.37
2019-01-30T01:08:42.507Z,989.35
2019-01-30T01:09:42.487Z,989.32
2019-01-30T01:10:42.447Z,989.32
2019-01-30T01:11:42.420Z,989.31
2019-01-30T01:12:42.402Z,989.34
2019-01-30T01:13:42.365Z,989.32
2019-01-30T01:14:42.333Z,989.31
2019-01-30T01:15:42.305Z,989.33
2019-01-30T01:16:42.276Z,989.31
2019-01-30T01:17:42.248Z,989.31
2019-01-30T01:18:42.218Z,989.28
2019-01-30T01:19:42.194Z,989.31
2019-01-30T01:20:42.162Z,989.26
2019-01-30T01:21:42.135Z,989.29
2019-01-30T01:22:42.105Z,989.31
2019-01-30T01:23:42.075Z,989.28
2019-01-30T01:24:42.046Z,989.24
2019-01-30T01:25:42.029Z,989.21
2019-01-30T01:26:41.988Z,989.19
2019-01-30T01:27:41.963Z,989.21
2019-01-30T01:28:41.935Z,989.19
2019-01-30T01:29:41.905Z,989.18
2019-01-30T01:30:41.875Z,989.23
2019-01-30T01:31:41.844Z,989.20
2019-01-30T01:32:41.817Z,989.16
2019-01-30T01:33:41.788Z,989.22
2019-01-30T01:34:41.759Z,989.21
2019-01-30T01:35:41.731Z,989.18
2019-01-30T01:36:41.703Z,989.18
2019-01-30T01:37:41.676Z,989.18
2019-01-30T01:38:41.646Z,989.18
2019-01-30T01:39:41.617Z,989.18
2019-01-30T01:40:41.591Z,989.14
2019-01-30T01:41:41.572Z,989.17
2019-01-30T01:42:41.638Z,989.14
2019-01-30T01:43:41.501Z,989.14
2019-01-30T01:44:41.498Z,989.13
2019-01-30T01:45:41.449Z,989.09
2019-01-30T01:46:41.416Z,989.12
2019-01-30T01:47:41.387Z,989.10
2019-01-30T01:48:41.359Z,989.09
2019-01-30T01:49:41.331Z,989.13
2019-01-30T01:50:41.300Z,989.10
2019-01-30T01:51:41.272Z,989.10
2019-01-30T01:52:41.250Z,989.10
2019-01-30T01:53:41.217Z,989.06
2019-01-30T01:54:41.186Z,989.07
2019-01-30T01:55:41.158Z,989.10
2019-01-30T01:56:41.129Z,989.08
2019-01-30T01:57:41.103Z,989.05
2019-01-30T01:58:41.072Z,989.10
2019-01-30T01:59:41.044Z,989.02
2019-01-30T02:00:41.016Z,989.04
2019-01-30T02:01:40.987Z,989.05
2019-01-30T02:02:40.960Z,989.06
2019-01-30T02:03:40.929Z,988.98
2019-01-30T02:04:40.901Z,989.01
2019-01-30T02:05:40.872Z,988.96
2019-01-30T02:06:40.843Z,988.99
2019-01-30T02:07:40.814Z,988.99
2019-01-30T02:08:40.787Z,988.97
2019-01-30T02:09:40.759Z,988.95
2019-01-30T02:10:40.730Z,988.94
2019-01-30T02:11:40.701Z,988.97
2019-01-30T02:12:40.675Z,988.97
2019-01-30T02:13:40.644Z,988.89
2019-01-30T02:14:40.616Z,988.90
2019-01-30T02:15:40.587Z,988.90
2019-01-30T02:16:40.563Z,988.90
2019-01-30T02:17:40.528Z,988.85
2019-01-30T02:18:40.499Z,988.85
2019-01-30T02:19:40.470Z,988.84
2019-01-30T02:20:40.443Z,988.81
2019-01-30T02:21:40.497Z,988.81
2019-01-30T02:22:40.384Z,988.77
2019-01-30T02:23:40.356Z,988.75
2019-01-30T02:24:40.328Z,988.74
2019-01-30T02:25:40.299Z,988.68
2019-01-30T02:26:40.271Z,988.69
2019-01-30T02:27:40.241Z,988.68
2019-01-30T02:28:40.215Z,988.67
2019-01-30T02:29:40.188Z,988.67
2019-01-30T02:30:46.996Z,988.63
2019-01-30T02:31:40.141Z,988.56
2019-01-30T02:32:40.098Z,988.56
2019-01-30T02:33:40.072Z,988.55
2019-01-30T02:34:40.041Z,988.54
2019-01-30T02:35:40.013Z,988.52
2019-01-30T02:36:39.988Z,988.52
2019-01-30T02:37:39.960Z,988.46
2019-01-30T02:38:39.926Z,988.46
2019-01-30T02:39:39.899Z,988.44
2019-01-30T02:40:39.870Z,988.50
2019-01-30T02:41:39.841Z,988.46
2019-01-30T02:42:39.809Z,988.43
2019-01-30T02:43:39.782Z,988.41
2019-01-30T02:44:39.755Z,988.38
2019-01-30T02:45:39.729Z,988.36
2019-01-30T02:46:39.698Z,988.37
2019-01-30T02:47:39.667Z,988.36
2019-01-30T02:48:39.643Z,988.38
2019-01-30T02:49:39.610Z,988.39
2019-01-30T02:50:39.582Z,988.37
2019-01-30T02:51:39.555Z,988.36
2019-01-30T02:52:39.526Z,988.35
2019-01-30T02:53:39.496Z,988.33
2019-01-30T02:54:39.467Z,988.34
2019-01-30T02:55:39.442Z,988.36
2019-01-30T02:56:39.410Z,988.35
2019-01-30T02:57:39.387Z,988.33
2019-01-30T02:58:39.362Z,988.37
2019-01-30T02:59:39.325Z,988.36
2019-01-30T03:00:39.300Z,988.33
2019-01-30T03:01:39.266Z,988.34
2019-01-30T03:02:39.236Z,988.32
2019-01-30T03:03:39.214Z,988.31
2019-01-30T03:04:39.181Z,988.28
2019-01-30T03:05:39.152Z,988.26
2019-01-30T03:06:39.123Z,988.28
2019-01-30T03:07:39.093Z,988.27
2019-01-30T03:08:39.063Z,988.24
2019-01-30T03:09:39.036Z,988.24
2019-01-30T03:10:39.008Z,988.18
2019-01-30T03:11:38.978Z,988.21
2019-01-30T03:12:38.948Z,988.18
2019-01-30T03:13:38.922Z,988.23
2019-01-30T03:14:38.890Z,988.20
2019-01-30T03:15:38.876Z,988.21
2019-01-30T03:16:38.834Z,988.23
2019-01-30T03:17:38.806Z,988.20
2019-01-30T03:18:38.775Z,988.21
2019-01-30T03:19:38.749Z,988.22
2019-01-30T03:20:38.723Z,988.18
2019-01-30T03:21:38.691Z,988.17
2019-01-30T03:22:38.662Z,988.14
2019-01-30T03:23:38.635Z,988.11
2019-01-30T03:24:38.608Z,988.10
2019-01-30T03:25:38.576Z,988.08
2019-01-30T03:26:38.546Z,988.10
2019-01-30T03:27:38.517Z,988.09
2019-01-30T03:28:38.492Z,988.07
2019-01-30T03:29:38.461Z,988.05
2019-01-30T03:30:38.433Z,988.01
2019-01-30T03:31:38.412Z,988.06
2019-01-30T03:32:38.375Z,988.05
2019-01-30T03:33:38.351Z,988.02
2019-01-30T03:34:38.316Z,988.00
2019-01-30T03:35:38.346Z,987.98
2019-01-30T03:36:38.262Z,988.03
2019-01-30T03:37:38.236Z,987.98
2019-01-30T03:38:38.201Z,988.01
2019-01-30T03:39:38.176Z,987.96
2019-01-30T03:40:38.150Z,987.98
2019-01-30T03:41:38.114Z,987.97
2019-01-30T03:42:38.085Z,987.98
2019-01-30T03:43:38.058Z,987.98
2019-01-30T03:44:38.028Z,987.97
2019-01-30T03:45:38.010Z,987.95
2019-01-30T03:46:37.970Z,987.97
2019-01-30T03:47:37.941Z,987.92
2019-01-30T03:48:37.917Z,987.92
2019-01-30T03:49:37.886Z,987.94
2019-01-30T03:50:37.858Z,987.90
2019-01-30T03:51:37.829Z,987.91
2019-01-30T03:52:37.799Z,987.92
2019-01-30T03:53:37.769Z,987.85
2019-01-30T03:54:37.740Z,987.88
2019-01-30T03:55:37.714Z,987.89
2019-01-30T03:56:37.682Z,987.90
2019-01-30T03:57:37.658Z,987.86
2019-01-30T03:58:37.625Z,987.83
2019-01-30T03:59:37.597Z,987.80
2019-01-30T04:00:37.568Z,987.87
2019-01-30T04:01:37.538Z,987.83
2019-01-30T04:02:37.509Z,987.84
2019-01-30T04:03:37.481Z,987.84
2019-01-30T04:04:37.453Z,987.83
2019-01-30T04:05:37.426Z,987.79
2019-01-30T04:06:37.396Z,987.79
2019-01-30T04:07:37.367Z,987.81
2019-01-30T04:08:37.338Z,987.76
2019-01-30T04:09:37.325Z,987.76
2019-01-30T04:10:37.281Z,987.80
2019-01-30T04:11:37.261Z,987.80
2019-01-30T04:12:37.222Z,987.77
2019-01-30T04:13:37.217Z,987.76
2019-01-30T04:14:37.164Z,987.74
2019-01-30T04:15:37.140Z,987.77
2019-01-30T04:16:37.108Z,987.75
2019-01-30T04:17:37.078Z,987.72
2019-01-30T04:18:37.050Z,987.73
2019-01-30T04:19:37.021Z,987.72
2019-01-30T04:20:36.994Z,987.70
2019-01-30T04:21:36.965Z,987.69
2019-01-30T04:22:36.935Z,987.64
2019-01-30T04:23:36.906Z,987.64
2019-01-30T04:24:36.879Z,987.62
2019-01-30T04:25:36.853Z,987.61
2019-01-30T04:26:36.821Z,987.59
2019-01-30T04:27:36.793Z,987.60
2019-01-30T04:28:36.762Z,987.61
2019-01-30T04:29:36.733Z,987.59
2019-01-30T04:30:36.705Z,987.60
2019-01-30T04:31:38.205Z,987.63
2019-01-30T04:32:36.648Z,987.57
2019-01-30T04:33:36.621Z,987.61
2019-01-30T04:34:36.589Z,987.64
2019-01-30T04:35:36.565Z,987.64
2019-01-30T04:36:36.531Z,987.66
2019-01-30T04:37:36.504Z,987.61
2019-01-30T04:38:36.476Z,987.60
2019-01-30T04:39:36.446Z,987.63
2019-01-30T04:40:36.418Z,987.64
2019-01-30T04:41:36.389Z,987.57
2019-01-30T04:42:36.358Z,987.59
2019-01-30T04:43:36.331Z,987.59
2019-01-30T04:44:36.302Z,987.60
2019-01-30T04:45:36.274Z,987.57
2019-01-30T04:46:36.244Z,987.52
2019-01-30T04:47:36.217Z,987.56
2019-01-30T04:48:36.188Z,987.53
2019-01-30T04:49:36.160Z,987.53
2019-01-30T04:50:36.131Z,987.53
2019-01-30T04:51:36.101Z,987.51
2019-01-30T04:52:36.076Z,987.51
2019-01-30T04:53:36.043Z,987.47
2019-01-30T04:54:36.015Z,987.49
2019-01-30T04:55:35.990Z,987.46
2019-01-30T04:56:35.958Z,987.46
2019-01-30T04:57:35.932Z,987.49
2019-01-30T04:58:35.899Z,987.42
2019-01-30T04:59:35.870Z,987.45
2019-01-30T05:00:35.842Z,987.44
2019-01-30T05:01:35.814Z,987.40
2019-01-30T05:02:35.787Z,987.45
2019-01-30T05:03:35.757Z,987.46
2019-01-30T05:04:35.730Z,987.40
2019-01-30T05:05:35.702Z,987.41
2019-01-30T05:06:35.670Z,987.39
2019-01-30T05:07:35.643Z,987.34
2019-01-30T05:08:35.615Z,987.36
2019-01-30T05:09:35.586Z,987.31
2019-01-30T05:10:35.557Z,987.30
2019-01-30T05:11:35.531Z,987.32
2019-01-30T05:12:35.498Z,987.24
2019-01-30T05:13:35.470Z,987.26
2019-01-30T05:14:35.441Z,987.25
2019-01-30T05:15:35.414Z,987.27
2019-01-30T05:16:35.435Z,987.26
2019-01-30T05:17:35.356Z,987.26
2019-01-30T05:18:35.329Z,987.30
2019-01-30T05:19:35.296Z,987.23
2019-01-30T05:20:35.268Z,987.15
2019-01-30T05:21:35.241Z,987.22
2019-01-30T05:22:35.215Z,987.19
2019-01-30T05:23:35.183Z,987.16
2019-01-30T05:24:35.156Z,987.18
2019-01-30T05:25:35.126Z,987.18
2019-01-30T05:26:35.097Z,987.17
2019-01-30T05:27:35.069Z,987.17
2019-01-30T05:28:35.040Z,987.16
2019-01-30T05:29:35.014Z,987.17
2019-01-30T05:30:34.995Z,987.11
2019-01-30T05:31:34.955Z,987.13
2019-01-30T05:32:34.924Z,987.14
2019-01-30T05:33:34.896Z,987.05
2019-01-30T05:34:34.872Z,987.09
2019-01-30T05:35:34.841Z,987.10
2019-01-30T05:36:34.811Z,987.08
2019-01-30T05:37:34.782Z,987.08
2019-01-30T05:38:34.752Z,987.07
2019-01-30T05:39:34.724Z,987.06
2019-01-30T05:40:34.696Z,987.04
2019-01-30T05:41:34.668Z,987.03
2019-01-30T05:42:34.637Z,987.02
2019-01-30T05:43:34.608Z,987.03
2019-01-30T05:44:34.669Z,987.03
2019-01-30T05:45:34.551Z,986.98
2019-01-30T05:46:34.538Z,986.97
2019-01-30T05:47:34.502Z,986.95
2019-01-30T05:48:34.466Z,986.95
2019-01-30T05:49:34.451Z,986.90
2019-01-30T05:50:34.407Z,986.92
2019-01-30T05:51:34.381Z,986.93
2019-01-30T05:52:34.354Z,986.89
2019-01-30T05:53:34.321Z,986.90
2019-01-30T05:54:34.295Z,986.89
2019-01-30T05:55:34.266Z,986.84
2019-01-30T05:56:34.237Z,986.88
2019-01-30T05:57:34.207Z,986.85
2019-01-30T05:58:34.189Z,986.88
2019-01-30T05:59:34.147Z,986.90
2019-01-30T06:00:34.119Z,986.87
2019-01-30T06:01:34.091Z,986.87
2019-01-30T06:02:34.088Z,986.87
2019-01-30T06:03:34.036Z,986.84
2019-01-30T06:04:34.005Z,986.91
2019-01-30T06:05:33.985Z,986.88
2019-01-30T06:06:33.951Z,986.88
2019-01-30T06:07:33.917Z,986.88
2019-01-30T06:08:33.892Z,986.91
2019-01-30T06:09:33.862Z,986.92
2019-01-30T06:10:33.833Z,986.93
2019-01-30T06:11:33.803Z,986.90
2019-01-30T06:12:33.773Z,986.92
2019-01-30T06:13:33.750Z,986.90
2019-01-30T06:14:33.723Z,986.86
2019-01-30T06:15:33.688Z,986.85
2019-01-30T06:16:33.659Z,986.86
2019-01-30T06:17:33.629Z,986.87
2019-01-30T06:18:33.599Z,986.82
2019-01-30T06:19:33.570Z,986.85
2019-01-30T06:20:33.542Z,986.79
2019-01-30T06:21:33.511Z,986.81
2019-01-30T06:22:33.485Z,986.77
2019-01-30T06:23:33.464Z,986.74
2019-01-30T06:24:33.427Z,986.78
2019-01-30T06:25:33.398Z,986.73
2019-01-30T06:26:33.369Z,986.74
2019-01-30T06:27:33.341Z,986.73
2019-01-30T06:28:33.312Z,986.71
2019-01-30T06:29:33.287Z,986.69
2019-01-30T06:30:33.324Z,986.75
2019-01-30T06:31:33.226Z,986.70
2019-01-30T06:32:33.196Z,986.66
2019-01-30T06:33:33.167Z,986.68
2019-01-30T06:34:33.138Z,986.63
2019-01-30T06:35:33.110Z,986.68
2019-01-30T06:36:33.081Z,986.65
2019-01-30T06:37:33.054Z,986.65
2019-01-30T06:38:33.023Z,986.68
2019-01-30T06:39:32.993Z,986.60
2019-01-30T06:40:32.966Z,986.61
2019-01-30T06:41:32.936Z,986.62
2019-01-30T06:42:32.906Z,986.58
2019-01-30T06:43:32.878Z,986.60
2019-01-30T06:44:32.851Z,986.59
2019-01-30T06:45:32.822Z,986.61
2019-01-30T06:46:32.792Z,986.55
2019-01-30T06:47:32.764Z,986.56
2019-01-30T06:48:32.734Z,986.54
2019-01-30T06:49:32.707Z,986.50
2019-01-30T06:50:32.678Z,986.55
2019-01-30T06:51:32.650Z,986.55
2019-01-30T06:52:32.650Z,986.57
2019-01-30T06:53:32.589Z,986.55
2019-01-30T06:54:32.560Z,986.59
2019-01-30T06:55:32.530Z,986.58
2019-01-30T06:56:32.506Z,986.55
2019-01-30T06:57:32.475Z,986.61
2019-01-30T06:58:32.446Z,986.59
2019-01-30T06:59:32.418Z,986.60
2019-01-30T07:00:32.389Z,986.56
2019-01-30T07:01:32.360Z,986.60
2019-01-30T07:02:32.697Z,986.56
2019-01-30T07:03:32.303Z,986.56
2019-01-30T07:04:32.277Z,986.52
2019-01-30T07:05:32.270Z,986.52
2019-01-30T07:06:32.216Z,986.49
2019-01-30T07:07:32.186Z,986.53
2019-01-30T07:08:32.182Z,986.52
2019-01-30T07:09:32.130Z,986.49
2019-01-30T07:10:32.101Z,986.45
2019-01-30T07:11:32.072Z,986.46
2019-01-30T07:12:32.042Z,986.43
2019-01-30T07:13:32.014Z,986.44
2019-01-30T07:14:31.986Z,986.48
2019-01-30T07:15:31.957Z,986.42
2019-01-30T07:16:31.928Z,986.38
2019-01-30T07:17:31.899Z,986.36
2019-01-30T07:18:31.903Z,986.37
2019-01-30T07:19:31.840Z,986.38
2019-01-30T07:20:31.814Z,986.40
2019-01-30T07:21:31.790Z,986.37
2019-01-30T07:22:31.754Z,986.36
2019-01-30T07:23:31.725Z,986.37
2019-01-30T07:24:31.702Z,986.35
2019-01-30T07:25:31.671Z,986.39
2019-01-30T07:26:31.640Z,986.38
2019-01-30T07:27:31.610Z,986.37
2019-01-30T07:28:31.585Z,986.36
2019-01-30T07:29:31.555Z,986.35
2019-01-30T07:30:31.526Z,986.35
2019-01-30T07:31:31.498Z,986.32
2019-01-30T07:32:31.469Z,986.37
2019-01-30T07:33:31.439Z,986.39
2019-01-30T07:34:31.409Z,986.37
2019-01-30T07:35:31.380Z,986.40
2019-01-30T07:36:31.352Z,986.43
2019-01-30T07:37:31.323Z,986.44
2019-01-30T07:38:31.295Z,986.46
2019-01-30T07:39:31.267Z,986.45
2019-01-30T07:40:31.250Z,986.42
2019-01-30T07:41:31.211Z,986.40
2019-01-30T07:42:31.178Z,986.39
2019-01-30T07:43:31.174Z,986.35
2019-01-30T07:44:31.122Z,986.35
2019-01-30T07:45:31.102Z,986.38
2019-01-30T07:46:31.065Z,986.45
2019-01-30T07:47:31.036Z,986.43
2019-01-30T07:48:31.008Z,986.40
2019-01-30T07:49:30.981Z,986.46
2019-01-30T07:50:30.952Z,986.39
2019-01-30T07:51:30.923Z,986.43
2019-01-30T07:52:32.758Z,986.37
2019-01-30T07:53:30.868Z,986.34
2019-01-30T07:54:30.835Z,986.38
2019-01-30T07:55:30.807Z,986.39
2019-01-30T07:56:30.777Z,986.37
2019-01-30T07:57:30.751Z,986.35
2019-01-30T07:58:30.806Z,986.38
2019-01-30T07:59:32.118Z,986.34
2019-01-30T08:00:30.681Z,986.41
2019-01-30T08:01:30.634Z,986.40
2019-01-30T08:02:30.604Z,986.43
2019-01-30T08:03:30.579Z,986.44
2019-01-30T08:04:30.548Z,986.43
2019-01-30T08:05:30.519Z,986.47
2019-01-30T08:06:30.491Z,986.45
2019-01-30T08:07:30.462Z,986.48
2019-01-30T08:08:30.436Z,986.50
2019-01-30T08:09:30.405Z,986.46
2019-01-30T08:10:30.379Z,986.46
2019-01-30T08:11:32.966Z,986.45
2019-01-30T08:12:30.320Z,986.49
2019-01-30T08:13:30.290Z,986.47
2019-01-30T08:14:30.262Z,986.46
2019-01-30T08:15:30.242Z,986.47
2019-01-30T08:16:30.206Z,986.44
2019-01-30T08:17:30.176Z,986.50
2019-01-30T08:18:30.149Z,986.46
2019-01-30T08:19:30.120Z,986.42
2019-01-30T08:20:30.092Z,986.44
2019-01-30T08:21:30.062Z,986.45
2019-01-30T08:22:30.033Z,986.44
2019-01-30T08:23:30.186Z,986.45
2019-01-30T08:24:30.032Z,986.44
2019-01-30T08:25:30.234Z,986.44
2019-01-30T08:26:29.980Z,986.46
2019-01-30T08:27:30.250Z,986.43
2019-01-30T08:28:29.867Z,986.42
2019-01-30T08:29:30.115Z,986.46
2019-01-30T08:30:30.050Z,986.45
2019-01-30T08:31:30.245Z,986.42
2019-01-30T08:32:29.970Z,986.41
2019-01-30T08:33:29.719Z,986.39
2019-01-30T08:34:29.690Z,986.40
2019-01-30T08:35:29.667Z,986.41
2019-01-30T08:36:29.634Z,986.41
2019-01-30T08:37:29.607Z,986.38
2019-01-30T08:38:29.584Z,986.39
2019-01-30T08:39:29.548Z,986.36
2019-01-30T08:40:29.523Z,986.43
2019-01-30T08:41:29.492Z,986.42
2019-01-30T08:42:29.463Z,986.41
2019-01-30T08:43:29.437Z,986.42
2019-01-30T08:44:29.406Z,986.42
2019-01-30T08:45:29.381Z,986.46
2019-01-30T08:46:29.354Z,986.38
2019-01-30T08:47:29.323Z,986.42
2019-01-30T08:48:30.229Z,986.44
2019-01-30T08:49:29.268Z,986.42
2019-01-30T08:50:29.241Z,986.43
2019-01-30T08:51:29.209Z,986.41
2019-01-30T08:52:29.258Z,986.40
2019-01-30T08:53:29.154Z,986.42
2019-01-30T08:54:29.126Z,986.42
2019-01-30T08:55:29.097Z,986.43
2019-01-30T08:56:29.070Z,986.47
2019-01-30T08:57:29.050Z,986.44
2019-01-30T08:58:29.012Z,986.42
2019-01-30T08:59:28.987Z,986.40
2019-01-30T09:00:28.955Z,986.41
2019-01-30T09:01:28.932Z,986.39
2019-01-30T09:02:28.908Z,986.37
2019-01-30T09:03:28.871Z,986.37
2019-01-30T09:04:28.843Z,986.33
2019-01-30T09:05:28.815Z,986.37
2019-01-30T09:06:28.786Z,986.34
2019-01-30T09:07:28.767Z,986.36
2019-01-30T09:08:28.730Z,986.34
2019-01-30T09:09:28.700Z,986.34
2019-01-30T09:10:28.674Z,986.36
2019-01-30T09:11:28.644Z,986.37
2019-01-30T09:12:28.623Z,986.34
2019-01-30T09:13:28.589Z,986.38
2019-01-30T09:14:28.563Z,986.36
2019-01-30T09:15:28.534Z,986.33
2019-01-30T09:16:28.505Z,986.38
2019-01-30T09:17:28.476Z,986.36
2019-01-30T09:18:28.448Z,986.34
2019-01-30T09:19:28.419Z,986.32
2019-01-30T09:20:28.467Z,986.35
2019-01-30T09:21:28.366Z,986.32
2019-01-30T09:22:28.335Z,986.35
2019-01-30T09:23:28.311Z,986.33
2019-01-30T09:24:28.282Z,986.33
2019-01-30T09:25:28.253Z,986.30
2019-01-30T09:26:28.225Z,986.29
2019-01-30T09:27:28.196Z,986.30
2019-01-30T09:28:28.169Z,986.32
2019-01-30T09:29:28.141Z,986.33
2019-01-30T09:30:28.115Z,986.31
2019-01-30T09:31:28.088Z,986.30
2019-01-30T09:32:28.060Z,986.33
2019-01-30T09:33:28.035Z,986.30
2019-01-30T09:34:28.017Z,986.32
2019-01-30T09:35:27.992Z,986.35
2019-01-30T09:36:27.978Z,986.26
2019-01-30T09:37:27.954Z,986.29
2019-01-30T09:38:27.889Z,986.30
2019-01-30T09:39:27.861Z,986.26
2019-01-30T09:40:27.834Z,986.30
2019-01-30T09:41:27.834Z,986.31
2019-01-30T09:42:27.784Z,986.28
2019-01-30T09:43:27.754Z,986.32
2019-01-30T09:44:27.722Z,986.26
2019-01-30T09:45:27.743Z,986.28
2019-01-30T09:46:27.668Z,986.29
2019-01-30T09:47:27.640Z,986.31
2019-01-30T09:48:27.612Z,986.34
2019-01-30T09:49:27.585Z,986.32
2019-01-30T09:50:27.556Z,986.32
2019-01-30T09:51:27.561Z,986.33
2019-01-30T09:52:27.501Z,986.33
2019-01-30T09:53:27.473Z,986.31
2019-01-30T09:54:27.472Z,986.31
2019-01-30T09:55:27.446Z,986.32
2019-01-30T09:56:27.388Z,986.34
2019-01-30T09:57:27.363Z,986.28
2019-01-30T09:58:27.340Z,986.28
2019-01-30T09:59:27.308Z,986.28
2019-01-30T10:00:27.280Z,986.28
2019-01-30T10:01:27.253Z,986.26
2019-01-30T10:02:27.224Z,986.31
2019-01-30T10:03:36.133Z,986.31
2019-01-30T10:04:27.167Z,986.31
2019-01-30T10:05:27.150Z,986.32
2019-01-30T10:06:27.118Z,986.29
2019-01-30T10:07:27.086Z,986.33
2019-01-30T10:08:27.140Z,986.33
2019-01-30T10:09:27.030Z,986.34
2019-01-30T10:10:27.002Z,986.34
2019-01-30T10:11:26.974Z,986.36
2019-01-30T10:12:26.951Z,986.37
2019-01-30T10:13:26.920Z,986.36
2019-01-30T10:14:26.888Z,986.36
2019-01-30T10:15:26.865Z,986.35
2019-01-30T10:16:26.841Z,986.35
2019-01-30T10:17:26.808Z,986.39
2019-01-30T10:18:26.778Z,986.37
2019-01-30T10:19:26.761Z,986.38
2019-01-30T10:20:26.724Z,986.38
2019-01-30T10:21:26.697Z,986.37
2019-01-30T10:22:26.669Z,986.37
2019-01-30T10:23:26.640Z,986.34
2019-01-30T10:24:29.025Z,986.37
2019-01-30T10:25:26.591Z,986.33
2019-01-30T10:26:26.558Z,986.33
2019-01-30T10:27:26.529Z,986.36
2019-01-30T10:28:26.506Z,986.29
2019-01-30T10:29:26.482Z,986.32
2019-01-30T10:30:26.447Z,986.33
2019-01-30T10:31:26.424Z,986.28
2019-01-30T10:32:26.392Z,986.29
2019-01-30T10:33:26.364Z,986.32
2019-01-30T10:34:26.339Z,986.33
2019-01-30T10:35:26.311Z,986.29
2019-01-30T10:36:26.280Z,986.25
2019-01-30T10:37:26.253Z,986.23
2019-01-30T10:38:26.225Z,986.19
2019-01-30T10:39:26.199Z,986.24
2019-01-30T10:40:26.173Z,986.24
2019-01-30T10:41:26.176Z,986.17
2019-01-30T10:42:26.115Z,986.20
2019-01-30T10:43:26.101Z,986.22
2019-01-30T10:44:26.060Z,986.20
2019-01-30T10:45:26.031Z,986.22
2019-01-30T10:46:26.005Z,986.18
2019-01-30T10:47:25.976Z,986.15
2019-01-30T10:48:25.951Z,986.16
2019-01-30T10:49:25.921Z,986.15
2019-01-30T10:50:25.895Z,986.10
2019-01-30T10:51:25.865Z,986.12
2019-01-30T10:52:25.839Z,986.10
2019-01-30T10:53:25.815Z,986.09
2019-01-30T10:54:25.782Z,986.09
2019-01-30T10:55:25.822Z,986.05
2019-01-30T10:56:25.728Z,986.02
2019-01-30T10:57:25.702Z,986.02
2019-01-30T10:58:25.672Z,986.01
2019-01-30T10:59:26.692Z,986.03
2019-01-30T11:00:25.616Z,986.05
2019-01-30T11:01:25.592Z,986.04
2019-01-30T11:02:25.562Z,986.00
2019-01-30T11:03:25.534Z,986.02
2019-01-30T11:04:25.506Z,986.01
2019-01-30T11:05:25.479Z,986.01
2019-01-30T11:06:25.449Z,986.01
2019-01-30T11:07:25.426Z,986.03
2019-01-30T11:08:25.397Z,986.03
2019-01-30T11:09:25.369Z,986.06
2019-01-30T11:10:25.340Z,986.04
2019-01-30T11:11:25.313Z,986.02
2019-01-30T11:12:25.286Z,986.03
2019-01-30T11:13:25.260Z,986.06
2019-01-30T11:14:25.231Z,986.03
2019-01-30T11:15:25.202Z,986.04
2019-01-30T11:16:25.176Z,986.04
2019-01-30T11:17:25.148Z,986.06
2019-01-30T11:18:25.134Z,986.05
2019-01-30T11:19:25.093Z,986.10
2019-01-30T11:20:25.066Z,986.07
2019-01-30T11:21:25.064Z,986.11
2019-01-30T11:22:25.009Z,986.13
2019-01-30T11:23:24.983Z,986.17
2019-01-30T11:24:24.958Z,986.10
2019-01-30T11:25:24.930Z,986.09
2019-01-30T11:26:24.898Z,986.15
2019-01-30T11:27:24.872Z,986.13
2019-01-30T11:28:24.973Z,986.14
2019-01-30T11:29:24.816Z,986.16
2019-01-30T11:30:24.792Z,986.15
2019-01-30T11:31:24.759Z,986.13
2019-01-30T11:32:24.747Z,986.14
2019-01-30T11:33:24.705Z,986.08
2019-01-30T11:34:24.678Z,986.10
2019-01-30T11:35:24.648Z,986.11
2019-01-30T11:36:24.621Z,986.12
2019-01-30T11:37:24.593Z,986.10
2019-01-30T11:38:24.566Z,986.13
2019-01-30T11:39:24.538Z,986.13
2019-01-30T11:40:24.511Z,986.11
2019-01-30T11:41:24.484Z,986.11
2019-01-30T11:42:24.455Z,986.09
2019-01-30T11:43:24.426Z,986.12
2019-01-30T11:44:24.398Z,986.09
2019-01-30T11:45:24.369Z,986.07
2019-01-30T11:46:24.341Z,986.09
2019-01-30T11:47:24.316Z,986.08
2019-01-30T11:48:24.288Z,986.04
2019-01-30T11:49:24.259Z,986.04
2019-01-30T11:50:24.234Z,986.02
2019-01-30T11:51:24.205Z,986.04
2019-01-30T11:52:24.177Z,986.07
2019-01-30T11:53:24.148Z,986.06
2019-01-30T11:54:24.122Z,986.12
2019-01-30T11:55:24.090Z,986.11
2019-01-30T11:56:24.065Z,986.09
2019-01-30T11:57:24.040Z,986.08
2019-01-30T11:58:24.012Z,986.11
2019-01-30T11:59:23.979Z,986.04
2019-01-30T12:00:23.953Z,986.08
2019-01-30T12:01:23.926Z,986.08
2019-01-30T12:02:23.896Z,986.09
2019-01-30T12:03:23.869Z,986.07
2019-01-30T12:04:23.857Z,986.08
2019-01-30T12:05:23.816Z,986.06
2019-01-30T12:06:23.787Z,986.08
2019-01-30T12:07:23.759Z,986.08
2019-01-30T12:08:23.729Z,986.10
2019-01-30T12:09:23.700Z,986.07
2019-01-30T12:10:23.671Z,986.07
2019-01-30T12:11:23.644Z,986.07
2019-01-30T12:12:23.615Z,986.10
2019-01-30T12:13:23.589Z,986.07
2019-01-30T12:14:23.559Z,986.06
2019-01-30T12:15:23.532Z,986.06
2019-01-30T12:16:23.514Z,986.07
2019-01-30T12:17:23.476Z,986.05
2019-01-30T12:18:23.452Z,986.05
2019-01-30T12:19:23.419Z,986.03
2019-01-30T12:20:23.392Z,986.03
2019-01-30T12:21:23.365Z,986.01
2019-01-30T12:22:23.336Z,986.03
2019-01-30T12:23:23.403Z,986.03
2019-01-30T12:24:23.280Z,986.00
2019-01-30T12:25:23.280Z,985.98
2019-01-30T12:26:23.224Z,985.98
2019-01-30T12:27:23.195Z,985.98
2019-01-30T12:28:23.168Z,985.96